sensor_id;sensor_type;location;lat;lon;timestamp;temperature;humidity
3528;DHT22;1778;47.966;7.854;2023-12-28T00:00:36;6.70;99.90
3528;DHT22;1778;47.966;7.854;2023-12-28T00:01:37;6.70;99.90
3528;DHT22;1778;47.966;7.854;2023-12-28T00:02:39;6.70;99.90
3528;DHT22;1778;47.966;7.854;2023-12-28T00:03:42;6.70;99.90
3528;DHT22;1778;47.966;7.854;2023-12-28T00:04:44;7.00;99.90
3528;DHT22;1778;47.966;7.854;2023-12-28T00:05:45;7.20;99.90
3528;DHT22;1778;47.966;7.854;2023-12-28T00:06:47;7.30;99.90
3528;DHT22;1778;47.966;7.854;2023-12-28T00:07:48;7.30;99.90
3528;DHT22;1778;47.966;7.854;2023-12-28T00:08:58;7.30;99.90
3528;DHT22;1778;47.966;7.854;2023-12-28T00:10:12;7.20;99.90
3528;DHT22;1778;47.966;7.854;2023-12-28T00:11:13;7.20;99.90
3528;DHT22;1778;47.966;7.854;2023-12-28T00:12:15;7.20;99.90
3528;DHT22;1778;47.966;7.854;2023-12-28T00:13:16;7.20;99.90
3528;DHT22;1778;47.966;7.854;2023-12-28T00:14:18;7.20;99.90
3528;DHT22;1778;47.966;7.854;2023-12-28T00:15:21;7.20;99.90
3528;DHT22;1778;47.966;7.854;2023-12-28T00:16:23;7.30;99.90
3528;DHT22;1778;47.966;7.854;2023-12-28T00:17:25;7.30;99.90
3528;DHT22;1778;47.966;7.854;2023-12-28T00:18:26;7.20;99.90
3528;DHT22;1778;47.966;7.854;2023-12-28T00:19:28;7.30;99.90
3528;DHT22;1778;47.966;7.854;2023-12-28T00:20:30;7.30;99.90
3528;DHT22;1778;47.966;7.854;2023-12-28T00:21:31;7.30;99.90
3528;DHT22;1778;47.966;7.854;2023-12-28T00:22:33;7.30;99.90
3528;DHT22;1778;47.966;7.854;2023-12-28T00:23:34;7.30;99.90
3528;DHT22;1778;47.966;7.854;2023-12-28T00:24:36;7.20;99.90
3528;DHT22;1778;47.966;7.854;2023-12-28T00:25:37;7.20;99.90
3528;DHT22;1778;47.966;7.854;2023-12-28T00:26:39;7.20;99.90
3528;DHT22;1778;47.966;7.854;2023-12-28T00:27:40;7.20;99.90
3528;DHT22;1778;47.966;7.854;2023-12-28T00:28:42;7.10;99.90
3528;DHT22;1778;47.966;7.854;2023-12-28T00:29:43;7.20;99.90
3528;DHT22;1778;47.966;7.854;2023-12-28T00:30:45;7.20;99.90
3528;DHT22;1778;47.966;7.854;2023-12-28T00:31:46;7.20;99.90
3528;DHT22;1778;47.966;7.854;2023-12-28T00:32:47;7.20;99.90
3528;DHT22;1778;47.966;7.854;2023-12-28T00:33:49;7.20;99.90
3528;DHT22;1778;47.966;7.854;2023-12-28T00:34:51;7.50;99.90
3528;DHT22;1778;47.966;7.854;2023-12-28T00:35:53;7.60;99.90
3528;DHT22;1778;47.966;7.854;2023-12-28T00:36:54;7.70;99.90
3528;DHT22;1778;47.966;7.854;2023-12-28T00:37:56;7.70;99.90
3528;DHT22;1778;47.966;7.854;2023-12-28T00:38:58;7.70;99.90
3528;DHT22;1778;47.966;7.854;2023-12-28T00:40:00;7.70;99.90
3528;DHT22;1778;47.966;7.854;2023-12-28T00:41:01;7.60;99.90
3528;DHT22;1778;47.966;7.854;2023-12-28T00:42:04;7.60;99.90
3528;DHT22;1778;47.966;7.854;2023-12-28T00:43:05;7.50;99.90
3528;DHT22;1778;47.966;7.854;2023-12-28T00:44:07;7.50;99.90
3528;DHT22;1778;47.966;7.854;2023-12-28T00:45:11;7.50;99.90
3528;DHT22;1778;47.966;7.854;2023-12-28T00:46:12;7.40;99.90
3528;DHT22;1778;47.966;7.854;2023-12-28T00:47:14;7.40;99.90
3528;DHT22;1778;47.966;7.854;2023-12-28T00:48:15;7.30;99.90
3528;DHT22;1778;47.966;7.854;2023-12-28T00:49:17;7.20;99.90
3528;DHT22;1778;47.966;7.854;2023-12-28T00:50:19;7.20;99.90
3528;DHT22;1778;47.966;7.854;2023-12-28T00:51:20;7.10;99.90
3528;DHT22;1778;47.966;7.854;2023-12-28T00:52:23;7.10;99.90
3528;DHT22;1778;47.966;7.854;2023-12-28T00:53:26;7.10;99.90
3528;DHT22;1778;47.966;7.854;2023-12-28T00:54:29;7.00;99.90
3528;DHT22;1778;47.966;7.854;2023-12-28T00:55:30;7.00;99.90
3528;DHT22;1778;47.966;7.854;2023-12-28T00:56:32;7.00;99.90
3528;DHT22;1778;47.966;7.854;2023-12-28T00:57:34;7.00;99.90
3528;DHT22;1778;47.966;7.854;2023-12-28T00:58:41;7.00;99.90
3528;DHT22;1778;47.966;7.854;2023-12-28T00:59:45;6.90;99.90
3528;DHT22;1778;47.966;7.854;2023-12-28T01:00:46;6.80;99.90
3528;DHT22;1778;47.966;7.854;2023-12-28T01:01:47;6.80;99.90
3528;DHT22;1778;47.966;7.854;2023-12-28T01:02:49;6.70;99.90
3528;DHT22;1778;47.966;7.854;2023-12-28T01:03:51;6.70;99.90
3528;DHT22;1778;47.966;7.854;2023-12-28T01:04:54;6.70;99.90
3528;DHT22;1778;47.966;7.854;2023-12-28T01:05:55;6.70;99.90
3528;DHT22;1778;47.966;7.854;2023-12-28T01:06:57;6.70;99.90
3528;DHT22;1778;47.966;7.854;2023-12-28T01:07:59;6.60;99.90
3528;DHT22;1778;47.966;7.854;2023-12-28T01:09:01;6.60;99.90
3528;DHT22;1778;47.966;7.854;2023-12-28T01:10:03;6.50;99.90
3528;DHT22;1778;47.966;7.854;2023-12-28T01:11:05;6.50;99.90
3528;DHT22;1778;47.966;7.854;2023-12-28T01:12:06;6.50;99.90
3528;DHT22;1778;47.966;7.854;2023-12-28T01:13:09;6.50;99.90
3528;DHT22;1778;47.966;7.854;2023-12-28T01:14:10;6.50;99.90
3528;DHT22;1778;47.966;7.854;2023-12-28T01:15:12;6.40;99.90
3528;DHT22;1778;47.966;7.854;2023-12-28T01:16:14;6.40;99.90
3528;DHT22;1778;47.966;7.854;2023-12-28T01:17:15;6.50;99.90
3528;DHT22;1778;47.966;7.854;2023-12-28T01:18:17;6.50;99.90
3528;DHT22;1778;47.966;7.854;2023-12-28T01:19:19;6.40;99.90
3528;DHT22;1778;47.966;7.854;2023-12-28T01:20:21;6.40;99.90
3528;DHT22;1778;47.966;7.854;2023-12-28T01:21:22;6.40;99.90
3528;DHT22;1778;47.966;7.854;2023-12-28T01:22:26;6.40;99.90
3528;DHT22;1778;47.966;7.854;2023-12-28T01:23:27;6.40;99.90
3528;DHT22;1778;47.966;7.854;2023-12-28T01:24:29;6.50;99.90
3528;DHT22;1778;47.966;7.854;2023-12-28T01:25:31;6.60;99.90
3528;DHT22;1778;47.966;7.854;2023-12-28T01:26:32;6.60;99.90
3528;DHT22;1778;47.966;7.854;2023-12-28T01:27:35;6.80;99.90
3528;DHT22;1778;47.966;7.854;2023-12-28T01:28:37;6.90;99.90
3528;DHT22;1778;47.966;7.854;2023-12-28T01:29:38;6.90;99.90
3528;DHT22;1778;47.966;7.854;2023-12-28T01:30:40;6.90;99.90
3528;DHT22;1778;47.966;7.854;2023-12-28T01:31:41;7.00;99.90
3528;DHT22;1778;47.966;7.854;2023-12-28T01:32:44;7.00;99.90
3528;DHT22;1778;47.966;7.854;2023-12-28T01:33:45;7.00;99.90
3528;DHT22;1778;47.966;7.854;2023-12-28T01:34:47;7.00;99.90
3528;DHT22;1778;47.966;7.854;2023-12-28T01:35:48;7.10;99.90
3528;DHT22;1778;47.966;7.854;2023-12-28T01:36:49;7.10;99.90
3528;DHT22;1778;47.966;7.854;2023-12-28T01:37:51;7.10;99.90
3528;DHT22;1778;47.966;7.854;2023-12-28T01:38:53;7.20;99.90
3528;DHT22;1778;47.966;7.854;2023-12-28T01:39:54;7.30;99.90
3528;DHT22;1778;47.966;7.854;2023-12-28T01:40:56;7.40;99.90
3528;DHT22;1778;47.966;7.854;2023-12-28T01:41:57;7.50;99.90
3528;DHT22;1778;47.966;7.854;2023-12-28T01:42:59;7.60;99.90
3528;DHT22;1778;47.966;7.854;2023-12-28T01:44:01;7.70;99.90
3528;DHT22;1778;47.966;7.854;2023-12-28T01:45:03;7.60;99.90
3528;DHT22;1778;47.966;7.854;2023-12-28T01:46:06;7.60;99.90
3528;DHT22;1778;47.966;7.854;2023-12-28T01:47:09;7.70;99.90
3528;DHT22;1778;47.966;7.854;2023-12-28T01:48:11;7.70;99.90
3528;DHT22;1778;47.966;7.854;2023-12-28T01:49:14;7.80;99.90
3528;DHT22;1778;47.966;7.854;2023-12-28T01:50:16;7.90;99.90
3528;DHT22;1778;47.966;7.854;2023-12-28T01:51:20;7.80;99.90
3528;DHT22;1778;47.966;7.854;2023-12-28T01:52:22;7.80;99.90
3528;DHT22;1778;47.966;7.854;2023-12-28T01:53:24;7.80;99.90
3528;DHT22;1778;47.966;7.854;2023-12-28T01:54:26;7.90;99.90
3528;DHT22;1778;47.966;7.854;2023-12-28T01:55:30;7.90;99.90
3528;DHT22;1778;47.966;7.854;2023-12-28T01:56:32;8.10;99.90
3528;DHT22;1778;47.966;7.854;2023-12-28T01:57:35;8.10;99.90
3528;DHT22;1778;47.966;7.854;2023-12-28T01:58:38;8.10;99.90
3528;DHT22;1778;47.966;7.854;2023-12-28T01:59:41;8.20;99.90
3528;DHT22;1778;47.966;7.854;2023-12-28T02:00:43;8.20;99.90
3528;DHT22;1778;47.966;7.854;2023-12-28T02:01:46;8.30;99.90
3528;DHT22;1778;47.966;7.854;2023-12-28T02:02:48;8.30;99.90
3528;DHT22;1778;47.966;7.854;2023-12-28T02:03:51;8.30;99.90
3528;DHT22;1778;47.966;7.854;2023-12-28T02:04:54;8.30;99.90
3528;DHT22;1778;47.966;7.854;2023-12-28T02:05:55;8.40;99.90
3528;DHT22;1778;47.966;7.854;2023-12-28T02:06:59;8.60;99.90
3528;DHT22;1778;47.966;7.854;2023-12-28T02:08:00;8.70;99.90
3528;DHT22;1778;47.966;7.854;2023-12-28T02:09:03;8.80;99.90
3528;DHT22;1778;47.966;7.854;2023-12-28T02:10:05;8.90;99.90
3528;DHT22;1778;47.966;7.854;2023-12-28T02:11:07;9.00;99.90
3528;DHT22;1778;47.966;7.854;2023-12-28T02:12:09;9.10;99.90
3528;DHT22;1778;47.966;7.854;2023-12-28T02:13:11;9.20;99.90
3528;DHT22;1778;47.966;7.854;2023-12-28T02:14:12;9.30;99.90
3528;DHT22;1778;47.966;7.854;2023-12-28T02:15:14;9.40;99.90
3528;DHT22;1778;47.966;7.854;2023-12-28T02:16:24;9.50;99.90
3528;DHT22;1778;47.966;7.854;2023-12-28T02:18:42;9.60;99.90
3528;DHT22;1778;47.966;7.854;2023-12-28T02:19:49;9.70;99.90
3528;DHT22;1778;47.966;7.854;2023-12-28T02:20:51;9.70;99.90
3528;DHT22;1778;47.966;7.854;2023-12-28T02:21:54;9.70;99.90
3528;DHT22;1778;47.966;7.854;2023-12-28T02:22:56;9.80;99.90
3528;DHT22;1778;47.966;7.854;2023-12-28T02:23:58;9.80;99.90
3528;DHT22;1778;47.966;7.854;2023-12-28T02:25:12;9.70;99.90
3528;DHT22;1778;47.966;7.854;2023-12-28T02:26:15;9.60;99.90
3528;DHT22;1778;47.966;7.854;2023-12-28T02:27:17;9.50;99.90
3528;DHT22;1778;47.966;7.854;2023-12-28T02:28:19;9.40;99.90
3528;DHT22;1778;47.966;7.854;2023-12-28T02:29:20;9.40;99.90
3528;DHT22;1778;47.966;7.854;2023-12-28T02:30:29;9.20;99.90
3528;DHT22;1778;47.966;7.854;2023-12-28T02:31:58;9.20;99.90
3528;DHT22;1778;47.966;7.854;2023-12-28T02:33:24;9.00;99.90
3528;DHT22;1778;47.966;7.854;2023-12-28T02:34:30;9.00;99.90
3528;DHT22;1778;47.966;7.854;2023-12-28T02:36:44;8.90;99.90
3528;DHT22;1778;47.966;7.854;2023-12-28T02:37:51;8.80;99.90
3528;DHT22;1778;47.966;7.854;2023-12-28T02:38:56;8.80;99.90
3528;DHT22;1778;47.966;7.854;2023-12-28T02:39:59;8.80;99.90
3528;DHT22;1778;47.966;7.854;2023-12-28T02:41:03;8.80;99.90
3528;DHT22;1778;47.966;7.854;2023-12-28T02:42:04;8.80;99.90
3528;DHT22;1778;47.966;7.854;2023-12-28T02:43:07;8.90;99.90
3528;DHT22;1778;47.966;7.854;2023-12-28T02:44:10;8.90;99.90
3528;DHT22;1778;47.966;7.854;2023-12-28T02:45:11;9.00;99.90
3528;DHT22;1778;47.966;7.854;2023-12-28T02:46:13;9.10;99.90
3528;DHT22;1778;47.966;7.854;2023-12-28T02:47:14;9.30;99.90
3528;DHT22;1778;47.966;7.854;2023-12-28T02:48:16;9.40;99.90
3528;DHT22;1778;47.966;7.854;2023-12-28T02:49:18;9.40;99.90
3528;DHT22;1778;47.966;7.854;2023-12-28T02:50:20;9.50;99.90
3528;DHT22;1778;47.966;7.854;2023-12-28T02:51:21;9.60;99.90
3528;DHT22;1778;47.966;7.854;2023-12-28T02:52:23;9.60;99.90
3528;DHT22;1778;47.966;7.854;2023-12-28T02:53:24;9.50;99.90
3528;DHT22;1778;47.966;7.854;2023-12-28T02:54:26;9.60;99.90
3528;DHT22;1778;47.966;7.854;2023-12-28T02:55:27;9.60;99.90
3528;DHT22;1778;47.966;7.854;2023-12-28T02:56:29;9.60;99.90
3528;DHT22;1778;47.966;7.854;2023-12-28T02:57:31;9.70;99.90
3528;DHT22;1778;47.966;7.854;2023-12-28T02:58:33;9.80;99.90
3528;DHT22;1778;47.966;7.854;2023-12-28T02:59:35;9.80;99.80
3528;DHT22;1778;47.966;7.854;2023-12-28T03:00:36;9.90;99.90
3528;DHT22;1778;47.966;7.854;2023-12-28T03:01:38;9.90;99.90
3528;DHT22;1778;47.966;7.854;2023-12-28T03:02:41;10.00;99.00
3528;DHT22;1778;47.966;7.854;2023-12-28T03:03:43;9.90;99.40
3528;DHT22;1778;47.966;7.854;2023-12-28T03:04:44;9.90;99.50
3528;DHT22;1778;47.966;7.854;2023-12-28T03:05:47;10.00;98.90
3528;DHT22;1778;47.966;7.854;2023-12-28T03:06:48;10.00;98.90
3528;DHT22;1778;47.966;7.854;2023-12-28T03:07:50;10.00;98.90
3528;DHT22;1778;47.966;7.854;2023-12-28T03:08:52;10.10;99.90
3528;DHT22;1778;47.966;7.854;2023-12-28T03:09:53;10.00;99.90
3528;DHT22;1778;47.966;7.854;2023-12-28T03:10:55;10.00;99.90
3528;DHT22;1778;47.966;7.854;2023-12-28T03:11:57;10.00;99.90
3528;DHT22;1778;47.966;7.854;2023-12-28T03:12:58;10.00;99.90
3528;DHT22;1778;47.966;7.854;2023-12-28T03:14:00;10.10;99.10
3528;DHT22;1778;47.966;7.854;2023-12-28T03:15:03;10.00;99.00
3528;DHT22;1778;47.966;7.854;2023-12-28T03:16:06;10.10;98.50
3528;DHT22;1778;47.966;7.854;2023-12-28T03:17:09;10.30;97.50
3528;DHT22;1778;47.966;7.854;2023-12-28T03:18:11;10.30;98.20
3528;DHT22;1778;47.966;7.854;2023-12-28T03:19:12;10.40;98.70
3528;DHT22;1778;47.966;7.854;2023-12-28T03:20:15;10.40;98.60
3528;DHT22;1778;47.966;7.854;2023-12-28T03:21:17;10.40;98.90
3528;DHT22;1778;47.966;7.854;2023-12-28T03:22:19;10.40;98.70
3528;DHT22;1778;47.966;7.854;2023-12-28T03:23:20;10.40;98.30
3528;DHT22;1778;47.966;7.854;2023-12-28T03:24:22;10.40;98.30
3528;DHT22;1778;47.966;7.854;2023-12-28T03:25:24;10.40;98.40
3528;DHT22;1778;47.966;7.854;2023-12-28T03:26:25;10.40;98.30
3528;DHT22;1778;47.966;7.854;2023-12-28T03:27:27;10.40;98.70
3528;DHT22;1778;47.966;7.854;2023-12-28T03:28:29;10.40;97.70
3528;DHT22;1778;47.966;7.854;2023-12-28T03:29:31;10.60;97.50
3528;DHT22;1778;47.966;7.854;2023-12-28T03:30:32;10.60;97.60
3528;DHT22;1778;47.966;7.854;2023-12-28T03:31:38;10.60;97.80
3528;DHT22;1778;47.966;7.854;2023-12-28T03:32:40;10.70;98.20
3528;DHT22;1778;47.966;7.854;2023-12-28T03:33:41;10.70;97.30
3528;DHT22;1778;47.966;7.854;2023-12-28T03:34:43;10.70;97.50
3528;DHT22;1778;47.966;7.854;2023-12-28T03:35:45;10.70;97.60
3528;DHT22;1778;47.966;7.854;2023-12-28T03:36:48;10.70;97.30
3528;DHT22;1778;47.966;7.854;2023-12-28T03:37:51;10.80;97.80
3528;DHT22;1778;47.966;7.854;2023-12-28T03:38:53;10.80;97.80
3528;DHT22;1778;47.966;7.854;2023-12-28T03:39:54;10.90;97.30
3528;DHT22;1778;47.966;7.854;2023-12-28T03:40:56;10.90;97.30
3528;DHT22;1778;47.966;7.854;2023-12-28T03:41:57;10.90;97.40
3528;DHT22;1778;47.966;7.854;2023-12-28T03:42:58;10.90;97.40
3528;DHT22;1778;47.966;7.854;2023-12-28T03:44:00;10.90;97.50
3528;DHT22;1778;47.966;7.854;2023-12-28T03:45:02;11.00;97.50
3528;DHT22;1778;47.966;7.854;2023-12-28T03:46:04;11.00;97.40
3528;DHT22;1778;47.966;7.854;2023-12-28T03:47:06;11.00;99.10
3528;DHT22;1778;47.966;7.854;2023-12-28T03:48:07;10.90;97.40
3528;DHT22;1778;47.966;7.854;2023-12-28T03:49:09;11.00;97.50
3528;DHT22;1778;47.966;7.854;2023-12-28T03:50:11;11.00;97.50
3528;DHT22;1778;47.966;7.854;2023-12-28T03:51:16;11.00;97.50
3528;DHT22;1778;47.966;7.854;2023-12-28T03:52:17;11.00;97.20
3528;DHT22;1778;47.966;7.854;2023-12-28T03:53:19;11.00;97.60
3528;DHT22;1778;47.966;7.854;2023-12-28T03:54:21;11.10;97.80
3528;DHT22;1778;47.966;7.854;2023-12-28T03:55:23;11.10;97.20
3528;DHT22;1778;47.966;7.854;2023-12-28T03:56:26;11.20;96.50
3528;DHT22;1778;47.966;7.854;2023-12-28T03:57:28;11.20;97.60
3528;DHT22;1778;47.966;7.854;2023-12-28T03:58:29;11.20;97.00
3528;DHT22;1778;47.966;7.854;2023-12-28T03:59:31;11.20;96.80
3528;DHT22;1778;47.966;7.854;2023-12-28T04:00:32;11.20;97.80
3528;DHT22;1778;47.966;7.854;2023-12-28T04:01:36;11.20;97.70
3528;DHT22;1778;47.966;7.854;2023-12-28T04:02:38;11.20;97.60
3528;DHT22;1778;47.966;7.854;2023-12-28T04:03:40;11.20;97.50
3528;DHT22;1778;47.966;7.854;2023-12-28T04:04:41;11.20;97.60
3528;DHT22;1778;47.966;7.854;2023-12-28T04:05:43;11.30;97.30
3528;DHT22;1778;47.966;7.854;2023-12-28T04:06:45;11.30;97.20
3528;DHT22;1778;47.966;7.854;2023-12-28T04:07:46;11.20;98.00
3528;DHT22;1778;47.966;7.854;2023-12-28T04:08:48;11.10;98.40
3528;DHT22;1778;47.966;7.854;2023-12-28T04:09:50;11.10;98.60
3528;DHT22;1778;47.966;7.854;2023-12-28T04:10:52;11.10;98.90
3528;DHT22;1778;47.966;7.854;2023-12-28T04:11:53;11.10;99.40
3528;DHT22;1778;47.966;7.854;2023-12-28T04:12:54;11.10;98.90
3528;DHT22;1778;47.966;7.854;2023-12-28T04:13:58;11.10;98.10
3528;DHT22;1778;47.966;7.854;2023-12-28T04:15:00;11.10;97.70
3528;DHT22;1778;47.966;7.854;2023-12-28T04:16:02;11.10;99.40
3528;DHT22;1778;47.966;7.854;2023-12-28T04:17:04;11.10;98.80
3528;DHT22;1778;47.966;7.854;2023-12-28T04:18:05;11.10;99.50
3528;DHT22;1778;47.966;7.854;2023-12-28T04:19:08;11.00;99.90
3528;DHT22;1778;47.966;7.854;2023-12-28T04:20:10;11.10;99.90
3528;DHT22;1778;47.966;7.854;2023-12-28T04:21:12;11.10;99.90
3528;DHT22;1778;47.966;7.854;2023-12-28T04:22:15;11.10;99.90
3528;DHT22;1778;47.966;7.854;2023-12-28T04:23:16;11.10;98.10
3528;DHT22;1778;47.966;7.854;2023-12-28T04:24:18;11.10;97.30
3528;DHT22;1778;47.966;7.854;2023-12-28T04:25:20;11.20;97.20
3528;DHT22;1778;47.966;7.854;2023-12-28T04:26:21;11.20;97.30
3528;DHT22;1778;47.966;7.854;2023-12-28T04:27:23;11.30;97.30
3528;DHT22;1778;47.966;7.854;2023-12-28T04:28:25;11.40;97.10
3528;DHT22;1778;47.966;7.854;2023-12-28T04:29:26;11.40;97.50
3528;DHT22;1778;47.966;7.854;2023-12-28T04:30:28;11.40;97.60
3528;DHT22;1778;47.966;7.854;2023-12-28T04:31:30;11.50;98.40
3528;DHT22;1778;47.966;7.854;2023-12-28T04:32:32;11.60;97.50
3528;DHT22;1778;47.966;7.854;2023-12-28T04:33:36;11.60;95.90
3528;DHT22;1778;47.966;7.854;2023-12-28T04:34:38;11.60;97.30
3528;DHT22;1778;47.966;7.854;2023-12-28T04:35:41;11.60;97.50
3528;DHT22;1778;47.966;7.854;2023-12-28T04:36:42;11.60;97.70
3528;DHT22;1778;47.966;7.854;2023-12-28T04:37:46;11.60;97.50
3528;DHT22;1778;47.966;7.854;2023-12-28T04:38:47;11.60;97.60
3528;DHT22;1778;47.966;7.854;2023-12-28T04:39:49;11.50;99.00
3528;DHT22;1778;47.966;7.854;2023-12-28T04:40:50;11.50;98.60
3528;DHT22;1778;47.966;7.854;2023-12-28T04:41:52;11.50;98.30
3528;DHT22;1778;47.966;7.854;2023-12-28T04:42:55;11.50;97.90
3528;DHT22;1778;47.966;7.854;2023-12-28T04:43:57;11.50;97.90
3528;DHT22;1778;47.966;7.854;2023-12-28T04:44:58;11.60;97.60
3528;DHT22;1778;47.966;7.854;2023-12-28T04:46:04;11.60;97.80
3528;DHT22;1778;47.966;7.854;2023-12-28T04:47:05;11.60;97.50
3528;DHT22;1778;47.966;7.854;2023-12-28T04:48:07;11.70;97.50
3528;DHT22;1778;47.966;7.854;2023-12-28T04:49:10;11.70;97.20
3528;DHT22;1778;47.966;7.854;2023-12-28T04:50:12;11.70;97.10
3528;DHT22;1778;47.966;7.854;2023-12-28T04:51:13;11.90;96.10
3528;DHT22;1778;47.966;7.854;2023-12-28T04:52:15;11.90;95.80
3528;DHT22;1778;47.966;7.854;2023-12-28T04:53:17;11.90;96.10
3528;DHT22;1778;47.966;7.854;2023-12-28T04:54:19;12.00;96.60
3528;DHT22;1778;47.966;7.854;2023-12-28T04:55:21;12.00;96.60
3528;DHT22;1778;47.966;7.854;2023-12-28T04:56:22;12.00;96.80
3528;DHT22;1778;47.966;7.854;2023-12-28T04:57:24;12.00;96.40
3528;DHT22;1778;47.966;7.854;2023-12-28T04:58:27;12.10;96.30
3528;DHT22;1778;47.966;7.854;2023-12-28T04:59:28;12.10;96.30
3528;DHT22;1778;47.966;7.854;2023-12-28T05:00:30;12.10;96.90
3528;DHT22;1778;47.966;7.854;2023-12-28T05:01:31;12.10;97.40
3528;DHT22;1778;47.966;7.854;2023-12-28T05:02:34;12.10;97.70
3528;DHT22;1778;47.966;7.854;2023-12-28T05:03:36;12.10;97.70
3528;DHT22;1778;47.966;7.854;2023-12-28T05:04:37;12.10;96.70
3528;DHT22;1778;47.966;7.854;2023-12-28T05:05:42;12.10;96.20
3528;DHT22;1778;47.966;7.854;2023-12-28T05:06:43;12.20;95.20
3528;DHT22;1778;47.966;7.854;2023-12-28T05:07:46;12.20;95.10
3528;DHT22;1778;47.966;7.854;2023-12-28T05:08:48;12.30;95.40
3528;DHT22;1778;47.966;7.854;2023-12-28T05:09:50;12.30;97.50
3528;DHT22;1778;47.966;7.854;2023-12-28T05:10:51;12.40;96.20
3528;DHT22;1778;47.966;7.854;2023-12-28T05:11:53;12.40;96.10
3528;DHT22;1778;47.966;7.854;2023-12-28T05:12:54;12.40;96.90
3528;DHT22;1778;47.966;7.854;2023-12-28T05:14:02;12.40;97.10
3528;DHT22;1778;47.966;7.854;2023-12-28T05:15:04;12.40;98.20
3528;DHT22;1778;47.966;7.854;2023-12-28T05:16:06;12.30;99.50
3528;DHT22;1778;47.966;7.854;2023-12-28T05:17:07;12.20;99.90
3528;DHT22;1778;47.966;7.854;2023-12-28T05:18:09;12.10;99.90
3528;DHT22;1778;47.966;7.854;2023-12-28T05:19:10;12.10;99.90
3528;DHT22;1778;47.966;7.854;2023-12-28T05:20:12;12.00;99.90
3528;DHT22;1778;47.966;7.854;2023-12-28T05:21:14;11.90;99.90
3528;DHT22;1778;47.966;7.854;2023-12-28T05:22:15;11.90;99.90
3528;DHT22;1778;47.966;7.854;2023-12-28T05:23:17;11.80;99.90
3528;DHT22;1778;47.966;7.854;2023-12-28T05:24:19;11.70;99.90
3528;DHT22;1778;47.966;7.854;2023-12-28T05:25:21;11.60;99.90
3528;DHT22;1778;47.966;7.854;2023-12-28T05:26:23;11.60;99.90
3528;DHT22;1778;47.966;7.854;2023-12-28T05:27:25;11.60;99.90
3528;DHT22;1778;47.966;7.854;2023-12-28T05:28:27;11.60;99.90
3528;DHT22;1778;47.966;7.854;2023-12-28T05:29:29;11.60;99.90
3528;DHT22;1778;47.966;7.854;2023-12-28T05:30:30;11.50;99.90
3528;DHT22;1778;47.966;7.854;2023-12-28T05:31:31;11.50;99.90
3528;DHT22;1778;47.966;7.854;2023-12-28T05:32:34;11.50;99.90
3528;DHT22;1778;47.966;7.854;2023-12-28T05:33:36;11.60;99.90
3528;DHT22;1778;47.966;7.854;2023-12-28T05:34:38;11.50;99.90
3528;DHT22;1778;47.966;7.854;2023-12-28T05:35:39;11.50;99.90
3528;DHT22;1778;47.966;7.854;2023-12-28T05:36:41;11.50;99.90
3528;DHT22;1778;47.966;7.854;2023-12-28T05:37:43;11.50;99.90
3528;DHT22;1778;47.966;7.854;2023-12-28T05:38:45;11.50;99.90
3528;DHT22;1778;47.966;7.854;2023-12-28T05:39:47;11.40;99.90
3528;DHT22;1778;47.966;7.854;2023-12-28T05:40:48;11.40;99.00
3528;DHT22;1778;47.966;7.854;2023-12-28T05:41:50;11.40;98.80
3528;DHT22;1778;47.966;7.854;2023-12-28T05:42:52;11.40;99.90
3528;DHT22;1778;47.966;7.854;2023-12-28T05:43:53;11.40;98.00
3528;DHT22;1778;47.966;7.854;2023-12-28T05:44:55;11.50;98.10
3528;DHT22;1778;47.966;7.854;2023-12-28T05:45:56;11.50;98.80
3528;DHT22;1778;47.966;7.854;2023-12-28T05:46:58;11.50;99.90
3528;DHT22;1778;47.966;7.854;2023-12-28T05:47:59;11.40;99.90
3528;DHT22;1778;47.966;7.854;2023-12-28T05:49:01;11.40;99.90
3528;DHT22;1778;47.966;7.854;2023-12-28T05:50:03;11.40;99.90
3528;DHT22;1778;47.966;7.854;2023-12-28T05:51:05;11.40;99.60
3528;DHT22;1778;47.966;7.854;2023-12-28T05:52:06;11.30;99.40
3528;DHT22;1778;47.966;7.854;2023-12-28T05:53:08;11.40;99.90
3528;DHT22;1778;47.966;7.854;2023-12-28T05:54:15;11.30;99.90
3528;DHT22;1778;47.966;7.854;2023-12-28T05:55:16;11.30;99.90
3528;DHT22;1778;47.966;7.854;2023-12-28T05:56:18;11.40;99.90
3528;DHT22;1778;47.966;7.854;2023-12-28T05:57:19;11.30;99.90
3528;DHT22;1778;47.966;7.854;2023-12-28T05:58:21;11.20;99.90
3528;DHT22;1778;47.966;7.854;2023-12-28T05:59:23;11.20;99.90
3528;DHT22;1778;47.966;7.854;2023-12-28T06:00:27;11.20;99.90
3528;DHT22;1778;47.966;7.854;2023-12-28T06:01:29;11.20;99.90
3528;DHT22;1778;47.966;7.854;2023-12-28T06:02:30;11.20;99.90
3528;DHT22;1778;47.966;7.854;2023-12-28T06:03:32;11.20;99.90
3528;DHT22;1778;47.966;7.854;2023-12-28T06:04:34;11.10;99.90
3528;DHT22;1778;47.966;7.854;2023-12-28T06:05:36;11.10;99.90
3528;DHT22;1778;47.966;7.854;2023-12-28T06:06:38;11.10;99.90
3528;DHT22;1778;47.966;7.854;2023-12-28T06:07:40;11.10;99.90
3528;DHT22;1778;47.966;7.854;2023-12-28T06:08:42;11.10;99.90
3528;DHT22;1778;47.966;7.854;2023-12-28T06:09:43;11.00;99.90
3528;DHT22;1778;47.966;7.854;2023-12-28T06:10:46;11.00;99.90
3528;DHT22;1778;47.966;7.854;2023-12-28T06:11:47;10.90;99.90
3528;DHT22;1778;47.966;7.854;2023-12-28T06:12:49;11.00;99.90
3528;DHT22;1778;47.966;7.854;2023-12-28T06:13:50;10.90;99.30
3528;DHT22;1778;47.966;7.854;2023-12-28T06:14:51;11.00;98.60
3528;DHT22;1778;47.966;7.854;2023-12-28T06:15:53;11.00;97.40
3528;DHT22;1778;47.966;7.854;2023-12-28T06:16:54;11.10;97.40
3528;DHT22;1778;47.966;7.854;2023-12-28T06:17:56;11.20;96.90
3528;DHT22;1778;47.966;7.854;2023-12-28T06:18:58;11.20;96.50
3528;DHT22;1778;47.966;7.854;2023-12-28T06:20:01;11.20;96.00
3528;DHT22;1778;47.966;7.854;2023-12-28T06:21:03;11.20;95.90
3528;DHT22;1778;47.966;7.854;2023-12-28T06:22:07;11.20;96.00
3528;DHT22;1778;47.966;7.854;2023-12-28T06:23:08;11.20;96.10
3528;DHT22;1778;47.966;7.854;2023-12-28T06:24:10;11.20;97.80
3528;DHT22;1778;47.966;7.854;2023-12-28T06:25:12;11.20;99.30
3528;DHT22;1778;47.966;7.854;2023-12-28T06:26:14;11.20;97.20
3528;DHT22;1778;47.966;7.854;2023-12-28T06:27:16;11.20;99.50
3528;DHT22;1778;47.966;7.854;2023-12-28T06:28:17;11.20;99.60
3528;DHT22;1778;47.966;7.854;2023-12-28T06:29:19;11.20;97.20
3528;DHT22;1778;47.966;7.854;2023-12-28T06:30:20;11.20;97.30
3528;DHT22;1778;47.966;7.854;2023-12-28T06:31:22;11.20;99.90
3528;DHT22;1778;47.966;7.854;2023-12-28T06:32:23;11.20;99.90
3528;DHT22;1778;47.966;7.854;2023-12-28T06:33:27;11.20;99.90
3528;DHT22;1778;47.966;7.854;2023-12-28T06:34:30;11.20;99.90
3528;DHT22;1778;47.966;7.854;2023-12-28T06:35:31;11.20;99.90
3528;DHT22;1778;47.966;7.854;2023-12-28T06:36:33;11.30;98.70
3528;DHT22;1778;47.966;7.854;2023-12-28T06:37:35;11.30;99.70
3528;DHT22;1778;47.966;7.854;2023-12-28T06:38:36;11.30;99.50
3528;DHT22;1778;47.966;7.854;2023-12-28T06:39:39;11.20;99.30
3528;DHT22;1778;47.966;7.854;2023-12-28T06:40:40;11.20;99.20
3528;DHT22;1778;47.966;7.854;2023-12-28T06:41:42;11.20;99.90
3528;DHT22;1778;47.966;7.854;2023-12-28T06:42:43;11.20;99.90
3528;DHT22;1778;47.966;7.854;2023-12-28T06:43:45;11.20;99.90
3528;DHT22;1778;47.966;7.854;2023-12-28T06:44:46;11.20;99.40
3528;DHT22;1778;47.966;7.854;2023-12-28T06:45:47;11.20;98.10
3528;DHT22;1778;47.966;7.854;2023-12-28T06:46:49;11.20;97.20
3528;DHT22;1778;47.966;7.854;2023-12-28T06:47:50;11.20;96.90
3528;DHT22;1778;47.966;7.854;2023-12-28T06:48:52;11.20;96.70
3528;DHT22;1778;47.966;7.854;2023-12-28T06:49:53;11.20;96.50
3528;DHT22;1778;47.966;7.854;2023-12-28T06:50:55;11.20;96.60
3528;DHT22;1778;47.966;7.854;2023-12-28T06:51:57;11.30;97.00